sensor_id;sensor_type;location;lat;lon;timestamp;P1;durP1;ratioP1;P2;durP2;ratioP2
63394;SDS011;49531;-34.520;150.798;2023-08-06T00:01:14;3.13;;;1.13;;
63394;SDS011;49531;-34.520;150.798;2023-08-06T00:03:41;5.45;;;1.25;;
63394;SDS011;49531;-34.520;150.798;2023-08-06T00:06:08;2.75;;;1.00;;
63394;SDS011;49531;-34.520;150.798;2023-08-06T00:08:35;2.90;;;1.27;;
63394;SDS011;49531;-34.520;150.798;2023-08-06T00:11:03;4.50;;;1.20;;
63394;SDS011;49531;-34.520;150.798;2023-08-06T00:13:30;3.95;;;1.10;;
63394;SDS011;49531;-34.520;150.798;2023-08-06T00:16:07;2.17;;;1.08;;
63394;SDS011;49531;-34.520;150.798;2023-08-06T00:18:36;2.10;;;1.00;;
63394;SDS011;49531;-34.520;150.798;2023-08-06T00:21:04;2.63;;;1.20;;
63394;SDS011;49531;-34.520;150.798;2023-08-06T00:23:31;6.63;;;1.10;;
63394;SDS011;49531;-34.520;150.798;2023-08-06T00:25:58;2.95;;;1.02;;
63394;SDS011;49531;-34.520;150.798;2023-08-06T00:28:25;2.70;;;1.08;;
63394;SDS011;49531;-34.520;150.798;2023-08-06T00:30:53;3.28;;;1.10;;
63394;SDS011;49531;-34.520;150.798;2023-08-06T00:33:21;2.45;;;1.00;;
63394;SDS011;49531;-34.520;150.798;2023-08-06T00:35:48;3.33;;;1.00;;
63394;SDS011;49531;-34.520;150.798;2023-08-06T00:38:15;2.15;;;0.90;;
63394;SDS011;49531;-34.520;150.798;2023-08-06T00:40:42;2.97;;;1.20;;
63394;SDS011;49531;-34.520;150.798;2023-08-06T00:43:10;2.65;;;1.00;;
63394;SDS011;49531;-34.520;150.798;2023-08-06T00:45:37;2.90;;;1.05;;
63394;SDS011;49531;-34.520;150.798;2023-08-06T00:48:04;3.58;;;1.05;;
63394;SDS011;49531;-34.520;150.798;2023-08-06T00:50:33;1.85;;;1.00;;
63394;SDS011;49531;-34.520;150.798;2023-08-06T00:53:01;2.67;;;1.02;;
63394;SDS011;49531;-34.520;150.798;2023-08-06T00:55:28;4.75;;;1.15;;
63394;SDS011;49531;-34.520;150.798;2023-08-06T00:57:56;1.42;;;1.00;;
63394;SDS011;49531;-34.520;150.798;2023-08-06T01:00:24;1.83;;;1.23;;
63394;SDS011;49531;-34.520;150.798;2023-08-06T01:02:52;1.67;;;1.20;;
63394;SDS011;49531;-34.520;150.798;2023-08-06T01:05:20;3.40;;;1.40;;
63394;SDS011;49531;-34.520;150.798;2023-08-06T01:08:07;2.15;;;1.30;;
63394;SDS011;49531;-34.520;150.798;2023-08-06T01:10:59;3.92;;;1.67;;
63394;SDS011;49531;-34.520;150.798;2023-08-06T01:13:43;3.47;;;1.70;;
63394;SDS011;49531;-34.520;150.798;2023-08-06T01:16:16;3.05;;;1.63;;
63394;SDS011;49531;-34.520;150.798;2023-08-06T01:18:44;5.10;;;1.90;;
63394;SDS011;49531;-34.520;150.798;2023-08-06T01:21:16;3.85;;;2.00;;
63394;SDS011;49531;-34.520;150.798;2023-08-06T01:23:44;2.42;;;1.92;;
63394;SDS011;49531;-34.520;150.798;2023-08-06T01:26:19;3.15;;;2.10;;
63394;SDS011;49531;-34.520;150.798;2023-08-06T01:29:14;2.83;;;2.10;;
63394;SDS011;49531;-34.520;150.798;2023-08-06T01:31:50;5.28;;;2.80;;
63394;SDS011;49531;-34.520;150.798;2023-08-06T01:34:23;3.95;;;2.47;;
63394;SDS011;49531;-34.520;150.798;2023-08-06T01:36:53;4.57;;;2.50;;
63394;SDS011;49531;-34.520;150.798;2023-08-06T01:39:21;5.80;;;2.95;;
63394;SDS011;49531;-34.520;150.798;2023-08-06T01:41:48;3.70;;;2.80;;
63394;SDS011;49531;-34.520;150.798;2023-08-06T01:44:16;3.05;;;2.42;;
63394;SDS011;49531;-34.520;150.798;2023-08-06T01:46:43;3.97;;;2.58;;
63394;SDS011;49531;-34.520;150.798;2023-08-06T01:49:10;4.55;;;2.80;;
63394;SDS011;49531;-34.520;150.798;2023-08-06T01:51:38;4.55;;;2.70;;
63394;SDS011;49531;-34.520;150.798;2023-08-06T01:54:05;5.85;;;2.65;;
63394;SDS011;49531;-34.520;150.798;2023-08-06T01:56:32;3.42;;;2.50;;
63394;SDS011;49531;-34.520;150.798;2023-08-06T01:58:59;6.07;;;2.90;;
63394;SDS011;49531;-34.520;150.798;2023-08-06T02:01:26;5.15;;;2.65;;
63394;SDS011;49531;-34.520;150.798;2023-08-06T02:03:53;3.67;;;2.70;;
63394;SDS011;49531;-34.520;150.798;2023-08-06T02:06:20;3.00;;;2.47;;
63394;SDS011;49531;-34.520;150.798;2023-08-06T02:08:47;4.10;;;2.50;;
63394;SDS011;49531;-34.520;150.798;2023-08-06T02:11:14;3.65;;;2.47;;
63394;SDS011;49531;-34.520;150.798;2023-08-06T02:13:41;4.47;;;2.38;;
63394;SDS011;49531;-34.520;150.798;2023-08-06T02:16:08;4.32;;;2.55;;
63394;SDS011;49531;-34.520;150.798;2023-08-06T02:18:36;3.15;;;2.20;;
63394;SDS011;49531;-34.520;150.798;2023-08-06T02:21:03;4.70;;;2.25;;
63394;SDS011;49531;-34.520;150.798;2023-08-06T02:23:30;4.95;;;2.08;;
63394;SDS011;49531;-34.520;150.798;2023-08-06T02:25:58;3.97;;;2.17;;
63394;SDS011;49531;-34.520;150.798;2023-08-06T02:28:26;4.18;;;2.20;;
63394;SDS011;49531;-34.520;150.798;2023-08-06T02:30:54;2.55;;;1.80;;
63394;SDS011;49531;-34.520;150.798;2023-08-06T02:33:21;2.65;;;1.80;;
63394;SDS011;49531;-34.520;150.798;2023-08-06T02:35:49;3.30;;;1.88;;
63394;SDS011;49531;-34.520;150.798;2023-08-06T02:38:16;3.08;;;2.03;;
63394;SDS011;49531;-34.520;150.798;2023-08-06T02:40:43;2.85;;;1.63;;
63394;SDS011;49531;-34.520;150.798;2023-08-06T02:43:12;3.15;;;2.00;;
63394;SDS011;49531;-34.520;150.798;2023-08-06T02:45:40;3.22;;;1.88;;
63394;SDS011;49531;-34.520;150.798;2023-08-06T02:48:07;3.75;;;1.90;;
63394;SDS011;49531;-34.520;150.798;2023-08-06T02:50:38;3.03;;;1.83;;
63394;SDS011;49531;-34.520;150.798;2023-08-06T02:53:06;2.13;;;1.70;;
63394;SDS011;49531;-34.520;150.798;2023-08-06T02:55:34;3.55;;;1.67;;
63394;SDS011;49531;-34.520;150.798;2023-08-06T02:58:02;3.53;;;1.90;;
63394;SDS011;49531;-34.520;150.798;2023-08-06T03:00:29;3.90;;;1.77;;
63394;SDS011;49531;-34.520;150.798;2023-08-06T03:02:56;2.97;;;1.77;;
63394;SDS011;49531;-34.520;150.798;2023-08-06T03:05:23;1.67;;;1.52;;
63394;SDS011;49531;-34.520;150.798;2023-08-06T03:07:50;3.67;;;1.60;;
63394;SDS011;49531;-34.520;150.798;2023-08-06T03:10:17;2.65;;;1.70;;
63394;SDS011;49531;-34.520;150.798;2023-08-06T03:12:45;3.92;;;1.77;;
63394;SDS011;49531;-34.520;150.798;2023-08-06T03:15:12;2.72;;;1.77;;
63394;SDS011;49531;-34.520;150.798;2023-08-06T03:17:39;2.72;;;1.65;;
63394;SDS011;49531;-34.520;150.798;2023-08-06T03:20:07;4.32;;;1.60;;
63394;SDS011;49531;-34.520;150.798;2023-08-06T03:22:34;1.85;;;1.55;;
63394;SDS011;49531;-34.520;150.798;2023-08-06T03:25:01;3.60;;;1.88;;
63394;SDS011;49531;-34.520;150.798;2023-08-06T03:27:29;2.60;;;1.88;;
63394;SDS011;49531;-34.520;150.798;2023-08-06T03:29:57;3.90;;;1.80;;
63394;SDS011;49531;-34.520;150.798;2023-08-06T03:32:26;4.32;;;1.80;;
63394;SDS011;49531;-34.520;150.798;2023-08-06T03:34:53;3.10;;;1.90;;
63394;SDS011;49531;-34.520;150.798;2023-08-06T03:37:20;2.80;;;1.70;;
63394;SDS011;49531;-34.520;150.798;2023-08-06T03:39:47;2.05;;;1.60;;
63394;SDS011;49531;-34.520;150.798;2023-08-06T03:42:14;2.20;;;1.60;;
63394;SDS011;49531;-34.520;150.798;2023-08-06T03:44:44;2.33;;;1.77;;
63394;SDS011;49531;-34.520;150.798;2023-08-06T03:47:11;4.00;;;1.90;;
63394;SDS011;49531;-34.520;150.798;2023-08-06T03:49:38;3.63;;;1.90;;
63394;SDS011;49531;-34.520;150.798;2023-08-06T03:52:05;4.57;;;1.95;;
63394;SDS011;49531;-34.520;150.798;2023-08-06T03:54:35;2.58;;;1.70;;
63394;SDS011;49531;-34.520;150.798;2023-08-06T03:57:02;2.78;;;1.63;;
63394;SDS011;49531;-34.520;150.798;2023-08-06T03:59:30;2.95;;;1.63;;
63394;SDS011;49531;-34.520;150.798;2023-08-06T04:01:57;2.83;;;1.65;;
63394;SDS011;49531;-34.520;150.798;2023-08-06T04:04:24;2.08;;;1.60;;
63394;SDS011;49531;-34.520;150.798;2023-08-06T04:06:51;1.70;;;1.60;;
63394;SDS011;49531;-34.520;150.798;2023-08-06T04:09:18;3.13;;;1.70;;
63394;SDS011;49531;-34.520;150.798;2023-08-06T04:11:46;4.30;;;1.80;;
63394;SDS011;49531;-34.520;150.798;2023-08-06T04:14:13;2.03;;;1.50;;
63394;SDS011;49531;-34.520;150.798;2023-08-06T04:16:40;1.73;;;1.45;;
63394;SDS011;49531;-34.520;150.798;2023-08-06T04:19:07;2.83;;;1.70;;
63394;SDS011;49531;-34.520;150.798;2023-08-06T04:21:35;2.15;;;1.60;;
63394;SDS011;49531;-34.520;150.798;2023-08-06T04:24:02;1.63;;;1.52;;
63394;SDS011;49531;-34.520;150.798;2023-08-06T04:26:29;3.17;;;1.55;;
63394;SDS011;49531;-34.520;150.798;2023-08-06T04:28:56;2.25;;;1.70;;
63394;SDS011;49531;-34.520;150.798;2023-08-06T04:31:24;5.03;;;1.80;;
63394;SDS011;49531;-34.520;150.798;2023-08-06T04:33:51;3.40;;;1.70;;
63394;SDS011;49531;-34.520;150.798;2023-08-06T04:36:18;4.65;;;1.63;;
63394;SDS011;49531;-34.520;150.798;2023-08-06T04:38:45;2.65;;;1.52;;
63394;SDS011;49531;-34.520;150.798;2023-08-06T04:41:13;2.47;;;1.50;;
63394;SDS011;49531;-34.520;150.798;2023-08-06T04:43:40;2.45;;;1.35;;
63394;SDS011;49531;-34.520;150.798;2023-08-06T04:46:07;1.48;;;1.38;;
63394;SDS011;49531;-34.520;150.798;2023-08-06T04:48:34;2.58;;;1.48;;
63394;SDS011;49531;-34.520;150.798;2023-08-06T04:51:01;1.77;;;1.38;;
63394;SDS011;49531;-34.520;150.798;2023-08-06T04:53:28;1.58;;;1.38;;
63394;SDS011;49531;-34.520;150.798;2023-08-06T04:55:55;1.88;;;1.40;;
63394;SDS011;49531;-34.520;150.798;2023-08-06T04:58:22;3.35;;;1.60;;
63394;SDS011;49531;-34.520;150.798;2023-08-06T05:00:49;2.05;;;1.30;;
63394;SDS011;49531;-34.520;150.798;2023-08-06T05:03:16;3.08;;;1.58;;
63394;SDS011;49531;-34.520;150.798;2023-08-06T05:05:45;1.55;;;1.42;;
63394;SDS011;49531;-34.520;150.798;2023-08-06T05:08:15;3.28;;;1.50;;
63394;SDS011;49531;-34.520;150.798;2023-08-06T05:10:48;3.25;;;1.50;;
63394;SDS011;49531;-34.520;150.798;2023-08-06T05:13:15;2.60;;;1.60;;
63394;SDS011;49531;-34.520;150.798;2023-08-06T05:15:42;1.58;;;1.45;;
63394;SDS011;49531;-34.520;150.798;2023-08-06T05:18:11;2.10;;;1.50;;
63394;SDS011;49531;-34.520;150.798;2023-08-06T05:20:40;2.40;;;1.48;;
63394;SDS011;49531;-34.520;150.798;2023-08-06T05:23:08;2.45;;;1.58;;
63394;SDS011;49531;-34.520;150.798;2023-08-06T05:25:35;1.75;;;1.60;;
63394;SDS011;49531;-34.520;150.798;2023-08-06T05:28:03;2.88;;;1.40;;
63394;SDS011;49531;-34.520;150.798;2023-08-06T05:30:30;1.70;;;1.30;;
63394;SDS011;49531;-34.520;150.798;2023-08-06T05:32:58;2.92;;;1.40;;
63394;SDS011;49531;-34.520;150.798;2023-08-06T05:35:25;3.53;;;1.50;;
63394;SDS011;49531;-34.520;150.798;2023-08-06T05:37:55;1.63;;;1.52;;
63394;SDS011;49531;-34.520;150.798;2023-08-06T05:40:22;2.05;;;1.40;;
63394;SDS011;49531;-34.520;150.798;2023-08-06T05:42:52;1.88;;;1.38;;
63394;SDS011;49531;-34.520;150.798;2023-08-06T05:45:20;1.98;;;1.35;;
63394;SDS011;49531;-34.520;150.798;2023-08-06T05:47:48;3.30;;;1.40;;
63394;SDS011;49531;-34.520;150.798;2023-08-06T05:50:15;1.63;;;1.30;;
63394;SDS011;49531;-34.520;150.798;2023-08-06T05:52:42;3.47;;;1.50;;
63394;SDS011;49531;-34.520;150.798;2023-08-06T05:55:09;1.58;;;1.40;;
63394;SDS011;49531;-34.520;150.798;2023-08-06T05:57:36;1.77;;;1.40;;
63394;SDS011;49531;-34.520;150.798;2023-08-06T06:00:03;1.60;;;1.40;;
63394;SDS011;49531;-34.520;150.798;2023-08-06T06:02:32;1.48;;;1.38;;
63394;SDS011;49531;-34.520;150.798;2023-08-06T06:04:59;1.75;;;1.50;;
63394;SDS011;49531;-34.520;150.798;2023-08-06T06:07:26;2.08;;;1.50;;
63394;SDS011;49531;-34.520;150.798;2023-08-06T06:09:53;1.77;;;1.40;;
63394;SDS011;49531;-34.520;150.798;2023-08-06T06:12:20;1.75;;;1.48;;
63394;SDS011;49531;-34.520;150.798;2023-08-06T06:14:48;1.98;;;1.30;;
63394;SDS011;49531;-34.520;150.798;2023-08-06T06:17:15;2.20;;;1.40;;
63394;SDS011;49531;-34.520;150.798;2023-08-06T06:19:42;1.55;;;1.33;;
63394;SDS011;49531;-34.520;150.798;2023-08-06T06:22:09;2.50;;;1.40;;
63394;SDS011;49531;-34.520;150.798;2023-08-06T06:24:36;2.97;;;1.20;;
63394;SDS011;49531;-34.520;150.798;2023-08-06T06:27:03;2.22;;;1.35;;
63394;SDS011;49531;-34.520;150.798;2023-08-06T06:29:30;1.67;;;1.33;;
63394;SDS011;49531;-34.520;150.798;2023-08-06T06:31:57;1.92;;;1.25;;
63394;SDS011;49531;-34.520;150.798;2023-08-06T06:34:24;2.03;;;1.23;;
63394;SDS011;49531;-34.520;150.798;2023-08-06T06:36:52;1.55;;;1.30;;
63394;SDS011;49531;-34.520;150.798;2023-08-06T06:39:19;2.72;;;1.30;;
63394;SDS011;49531;-34.520;150.798;2023-08-06T06:41:47;2.65;;;1.20;;
63394;SDS011;49531;-34.520;150.798;2023-08-06T06:44:14;1.88;;;1.10;;
63394;SDS011;49531;-34.520;150.798;2023-08-06T06:46:45;2.10;;;1.20;;
63394;SDS011;49531;-34.520;150.798;2023-08-06T06:49:12;2.45;;;1.50;;
63394;SDS011;49531;-34.520;150.798;2023-08-06T06:51:40;3.67;;;1.80;;
63394;SDS011;49531;-34.520;150.798;2023-08-06T06:54:07;1.92;;;1.60;;
63394;SDS011;49531;-34.520;150.798;2023-08-06T06:56:34;4.43;;;2.25;;
63394;SDS011;49531;-34.520;150.798;2023-08-06T06:59:01;3.67;;;2.78;;
63394;SDS011;49531;-34.520;150.798;2023-08-06T07:01:28;3.13;;;2.55;;
63394;SDS011;49531;-34.520;150.798;2023-08-06T07:03:55;3.42;;;2.35;;
63394;SDS011;49531;-34.520;150.798;2023-08-06T07:06:22;3.30;;;2.20;;
63394;SDS011;49531;-34.520;150.798;2023-08-06T07:08:49;3.72;;;2.00;;
63394;SDS011;49531;-34.520;150.798;2023-08-06T07:11:17;2.13;;;1.92;;
63394;SDS011;49531;-34.520;150.798;2023-08-06T07:13:45;2.10;;;1.90;;
63394;SDS011;49531;-34.520;150.798;2023-08-06T07:16:12;2.65;;;2.03;;
63394;SDS011;49531;-34.520;150.798;2023-08-06T07:18:39;2.15;;;1.60;;
63394;SDS011;49531;-34.520;150.798;2023-08-06T07:21:06;2.78;;;1.80;;
63394;SDS011;49531;-34.520;150.798;2023-08-06T07:23:33;2.67;;;1.60;;
63394;SDS011;49531;-34.520;150.798;2023-08-06T07:26:00;1.98;;;1.60;;
63394;SDS011;49531;-34.520;150.798;2023-08-06T07:28:27;3.45;;;1.60;;
63394;SDS011;49531;-34.520;150.798;2023-08-06T07:30:54;1.70;;;1.50;;
63394;SDS011;49531;-34.520;150.798;2023-08-06T07:33:21;2.20;;;1.63;;
63394;SDS011;49531;-34.520;150.798;2023-08-06T07:35:48;1.90;;;1.70;;
63394;SDS011;49531;-34.520;150.798;2023-08-06T07:38:15;3.05;;;1.65;;
63394;SDS011;49531;-34.520;150.798;2023-08-06T07:40:42;1.50;;;1.33;;
63394;SDS011;49531;-34.520;150.798;2023-08-06T07:43:09;1.60;;;1.50;;
63394;SDS011;49531;-34.520;150.798;2023-08-06T07:45:37;1.60;;;1.50;;
63394;SDS011;49531;-34.520;150.798;2023-08-06T07:48:04;2.25;;;1.60;;
63394;SDS011;49531;-34.520;150.798;2023-08-06T07:50:31;1.83;;;1.40;;
63394;SDS011;49531;-34.520;150.798;2023-08-06T07:52:58;3.53;;;1.70;;
63394;SDS011;49531;-34.520;150.798;2023-08-06T07:55:25;2.78;;;1.65;;
63394;SDS011;49531;-34.520;150.798;2023-08-06T07:57:53;2.35;;;1.40;;
63394;SDS011;49531;-34.520;150.798;2023-08-06T08:00:20;1.83;;;1.45;;
63394;SDS011;49531;-34.520;150.798;2023-08-06T08:02:47;3.45;;;1.58;;
63394;SDS011;49531;-34.520;150.798;2023-08-06T08:05:14;1.75;;;1.40;;
63394;SDS011;49531;-34.520;150.798;2023-08-06T08:07:41;3.00;;;1.42;;
63394;SDS011;49531;-34.520;150.798;2023-08-06T08:10:09;1.48;;;1.38;;
63394;SDS011;49531;-34.520;150.798;2023-08-06T08:12:37;2.33;;;1.70;;
63394;SDS011;49531;-34.520;150.798;2023-08-06T08:15:04;1.45;;;1.35;;
63394;SDS011;49531;-34.520;150.798;2023-08-06T08:17:32;3.08;;;1.40;;
63394;SDS011;49531;-34.520;150.798;2023-08-06T08:20:00;1.60;;;1.50;;
63394;SDS011;49531;-34.520;150.798;2023-08-06T08:22:27;1.75;;;1.40;;
63394;SDS011;49531;-34.520;150.798;2023-08-06T08:24:54;2.30;;;1.65;;
63394;SDS011;49531;-34.520;150.798;2023-08-06T08:27:21;2.30;;;2.00;;
63394;SDS011;49531;-34.520;150.798;2023-08-06T08:29:55;4.18;;;3.30;;
63394;SDS011;49531;-34.520;150.798;2023-08-06T08:32:22;4.45;;;3.50;;
63394;SDS011;49531;-34.520;150.798;2023-08-06T08:34:50;2.78;;;2.40;;
63394;SDS011;49531;-34.520;150.798;2023-08-06T08:37:17;3.55;;;2.50;;
63394;SDS011;49531;-34.520;150.798;2023-08-06T08:39:44;2.65;;;2.10;;
63394;SDS011;49531;-34.520;150.798;2023-08-06T08:42:11;2.63;;;2.22;;
63394;SDS011;49531;-34.520;150.798;2023-08-06T08:44:39;2.45;;;2.17;;
63394;SDS011;49531;-34.520;150.798;2023-08-06T08:47:09;2.80;;;2.28;;
63394;SDS011;49531;-34.520;150.798;2023-08-06T08:49:37;3.75;;;2.30;;
63394;SDS011;49531;-34.520;150.798;2023-08-06T08:52:06;3.72;;;2.42;;
63394;SDS011;49531;-34.520;150.798;2023-08-06T08:54:38;4.28;;;2.38;;
63394;SDS011;49531;-34.520;150.798;2023-08-06T08:57:05;3.75;;;2.40;;
63394;SDS011;49531;-34.520;150.798;2023-08-06T08:59:33;2.47;;;2.10;;
63394;SDS011;49531;-34.520;150.798;2023-08-06T09:02:00;3.28;;;2.25;;
63394;SDS011;49531;-34.520;150.798;2023-08-06T09:04:29;2.28;;;2.08;;
63394;SDS011;49531;-34.520;150.798;2023-08-06T09:06:58;1.90;;;1.80;;
63394;SDS011;49531;-34.520;150.798;2023-08-06T09:09:26;2.38;;;2.17;;
63394;SDS011;49531;-34.520;150.798;2023-08-06T09:12:00;2.53;;;1.98;;
63394;SDS011;49531;-34.520;150.798;2023-08-06T09:14:28;6.22;;;1.98;;
63394;SDS011;49531;-34.520;150.798;2023-08-06T09:16:55;3.22;;;2.00;;
63394;SDS011;49531;-34.520;150.798;2023-08-06T09:19:23;2.30;;;1.90;;
63394;SDS011;49531;-34.520;150.798;2023-08-06T09:21:51;2.00;;;1.80;;
63394;SDS011;49531;-34.520;150.798;2023-08-06T09:24:19;2.88;;;1.90;;
63394;SDS011;49531;-34.520;150.798;2023-08-06T09:26:47;2.00;;;1.90;;
63394;SDS011;49531;-34.520;150.798;2023-08-06T09:29:14;2.78;;;1.88;;
63394;SDS011;49531;-34.520;150.798;2023-08-06T09:31:43;2.00;;;1.80;;
63394;SDS011;49531;-34.520;150.798;2023-08-06T09:34:16;4.97;;;2.38;;
63394;SDS011;49531;-34.520;150.798;2023-08-06T09:36:48;4.33;;;3.23;;
63394;SDS011;49531;-34.520;150.798;2023-08-06T09:39:19;3.58;;;2.80;;
63394;SDS011;49531;-34.520;150.798;2023-08-06T09:41:48;3.45;;;2.50;;
63394;SDS011;49531;-34.520;150.798;2023-08-06T09:44:22;2.70;;;2.25;;
63394;SDS011;49531;-34.520;150.798;2023-08-06T09:46:51;2.90;;;2.53;;
63394;SDS011;49531;-34.520;150.798;2023-08-06T09:49:20;3.47;;;2.30;;
63394;SDS011;49531;-34.520;150.798;2023-08-06T09:51:53;3.80;;;2.45;;
63394;SDS011;49531;-34.520;150.798;2023-08-06T09:54:23;3.58;;;2.30;;
63394;SDS011;49531;-34.520;150.798;2023-08-06T09:57:01;2.72;;;2.33;;
63394;SDS011;49531;-34.520;150.798;2023-08-06T09:59:29;2.67;;;2.20;;
63394;SDS011;49531;-34.520;150.798;2023-08-06T10:01:56;2.40;;;2.00;;
63394;SDS011;49531;-34.520;150.798;2023-08-06T10:04:24;2.80;;;2.00;;
63394;SDS011;49531;-34.520;150.798;2023-08-06T10:06:51;2.75;;;2.00;;
63394;SDS011;49531;-34.520;150.798;2023-08-06T10:09:19;2.38;;;2.00;;
63394;SDS011;49531;-34.520;150.798;2023-08-06T10:11:50;3.25;;;2.15;;
63394;SDS011;49531;-34.520;150.798;2023-08-06T10:14:21;3.15;;;1.90;;
63394;SDS011;49531;-34.520;150.798;2023-08-06T10:16:56;2.22;;;1.73;;
63394;SDS011;49531;-34.520;150.798;2023-08-06T10:19:25;2.75;;;2.00;;
63394;SDS011;49531;-34.520;150.798;2023-08-06T10:24:47;2.13;;;1.80;;
63394;SDS011;49531;-34.520;150.798;2023-08-06T10:27:20;1.95;;;1.80;;
63394;SDS011;49531;-34.520;150.798;2023-08-06T10:29:48;2.30;;;2.03;;
63394;SDS011;49531;-34.520;150.798;2023-08-06T10:32:16;2.20;;;1.83;;
63394;SDS011;49531;-34.520;150.798;2023-08-06T10:34:53;2.08;;;1.88;;
63394;SDS011;49531;-34.520;150.798;2023-08-06T10:37:25;2.67;;;1.88;;
63394;SDS011;49531;-34.520;150.798;2023-08-06T10:40:02;3.42;;;1.80;;
63394;SDS011;49531;-34.520;150.798;2023-08-06T10:42:33;2.13;;;1.83;;
63394;SDS011;49531;-34.520;150.798;2023-08-06T10:47:41;2.60;;;2.20;;
63394;SDS011;49531;-34.520;150.798;2023-08-06T10:50:11;2.35;;;2.10;;
63394;SDS011;49531;-34.520;150.798;2023-08-06T10:52:44;2.17;;;1.95;;
63394;SDS011;49531;-34.520;150.798;2023-08-06T10:55:12;2.65;;;2.20;;
63394;SDS011;49531;-34.520;150.798;2023-08-06T10:57:40;4.97;;;2.15;;
63394;SDS011;49531;-34.520;150.798;2023-08-06T11:00:08;2.45;;;2.08;;
63394;SDS011;49531;-34.520;150.798;2023-08-06T11:02:38;2.63;;;2.10;;
63394;SDS011;49531;-34.520;150.798;2023-08-06T11:05:06;2.22;;;2.00;;
63394;SDS011;49531;-34.520;150.798;2023-08-06T11:07:35;3.28;;;2.00;;
63394;SDS011;49531;-34.520;150.798;2023-08-06T11:10:04;2.03;;;1.83;;
63394;SDS011;49531;-34.520;150.798;2023-08-06T11:12:34;2.13;;;1.85;;
63394;SDS011;49531;-34.520;150.798;2023-08-06T11:15:02;2.58;;;1.92;;
63394;SDS011;49531;-34.520;150.798;2023-08-06T11:17:30;2.22;;;1.83;;
63394;SDS011;49531;-34.520;150.798;2023-08-06T11:20:00;2.40;;;1.90;;
63394;SDS011;49531;-34.520;150.798;2023-08-06T11:22:29;1.88;;;1.73;;
63394;SDS011;49531;-34.520;150.798;2023-08-06T11:24:57;2.33;;;1.90;;
63394;SDS011;49531;-34.520;150.798;2023-08-06T11:27:26;2.20;;;1.70;;
63394;SDS011;49531;-34.520;150.798;2023-08-06T11:29:54;2.05;;;1.70;;
63394;SDS011;49531;-34.520;150.798;2023-08-06T11:32:21;2.63;;;1.60;;
63394;SDS011;49531;-34.520;150.798;2023-08-06T11:34:48;1.98;;;1.70;;
63394;SDS011;49531;-34.520;150.798;2023-08-06T11:37:16;2.83;;;1.85;;
63394;SDS011;49531;-34.520;150.798;2023-08-06T11:39:47;1.80;;;1.60;;
63394;SDS011;49531;-34.520;150.798;2023-08-06T11:42:15;1.83;;;1.60;;
63394;SDS011;49531;-34.520;150.798;2023-08-06T11:44:42;1.50;;;1.40;;
63394;SDS011;49531;-34.520;150.798;2023-08-06T11:47:16;2.55;;;1.50;;
63394;SDS011;49531;-34.520;150.798;2023-08-06T11:49:46;1.52;;;1.42;;
63394;SDS011;49531;-34.520;150.798;2023-08-06T11:52:19;1.98;;;1.55;;
63394;SDS011;49531;-34.520;150.798;2023-08-06T11:57:36;2.40;;;1.58;;
63394;SDS011;49531;-34.520;150.798;2023-08-06T12:00:05;1.60;;;1.50;;
63394;SDS011;49531;-34.520;150.798;2023-08-06T12:02:35;1.65;;;1.52;;
63394;SDS011;49531;-34.520;150.798;2023-08-06T12:05:04;2.42;;;1.42;;
63394;SDS011;49531;-34.520;150.798;2023-08-06T12:07:40;1.65;;;1.52;;
63394;SDS011;49531;-34.520;150.798;2023-08-06T12:10:12;1.88;;;1.38;;
63394;SDS011;49531;-34.520;150.798;2023-08-06T12:12:40;1.50;;;1.40;;
63394;SDS011;49531;-34.520;150.798;2023-08-06T12:15:08;1.75;;;1.40;;
63394;SDS011;49531;-34.520;150.798;2023-08-06T12:17:38;1.63;;;1.33;;
63394;SDS011;49531;-34.520;150.798;2023-08-06T12:20:06;1.60;;;1.33;;
63394;SDS011;49531;-34.520;150.798;2023-08-06T12:22:34;1.65;;;1.40;;
63394;SDS011;49531;-34.520;150.798;2023-08-06T12:25:04;1.67;;;1.40;;
63394;SDS011;49531;-34.520;150.798;2023-08-06T12:27:34;1.67;;;1.40;;
63394;SDS011;49531;-34.520;150.798;2023-08-06T12:30:02;2.13;;;1.42;;
63394;SDS011;49531;-34.520;150.798;2023-08-06T12:32:31;2.13;;;1.40;;
63394;SDS011;49531;-34.520;150.798;2023-08-06T12:34:58;1.50;;;1.40;;
63394;SDS011;49531;-34.520;150.798;2023-08-06T12:37:32;1.85;;;1.27;;
63394;SDS011;49531;-34.520;150.798;2023-08-06T12:40:00;1.77;;;1.45;;
63394;SDS011;49531;-34.520;150.798;2023-08-06T12:42:27;1.30;;;1.20;;
63394;SDS011;49531;-34.520;150.798;2023-08-06T12:44:54;1.40;;;1.30;;
63394;SDS011;49531;-34.520;150.798;2023-08-06T12:47:21;1.30;;;1.20;;
63394;SDS011;49531;-34.520;150.798;2023-08-06T12:49:48;1.48;;;1.33;;
63394;SDS011;49531;-34.520;150.798;2023-08-06T12:52:15;1.70;;;1.30;;
63394;SDS011;49531;-34.520;150.798;2023-08-06T12:54:45;1.42;;;1.10;;
63394;SDS011;49531;-34.520;150.798;2023-08-06T12:57:12;1.83;;;1.40;;
63394;SDS011;49531;-34.520;150.798;2023-08-06T12:59:40;2.75;;;1.50;;
63394;SDS011;49531;-34.520;150.798;2023-08-06T13:02:07;1.33;;;1.20;;
63394;SDS011;49531;-34.520;150.798;2023-08-06T13:04:34;1.45;;;1.20;;
63394;SDS011;49531;-34.520;150.798;2023-08-06T13:07:01;1.42;;;1.27;;
63394;SDS011;49531;-34.520;150.798;2023-08-06T13:09:28;1.20;;;1.10;;
63394;SDS011;49531;-34.520;150.798;2023-08-06T13:11:56;1.33;;;1.05;;
63394;SDS011;49531;-34.520;150.798;2023-08-06T13:14:23;1.30;;;1.00;;
63394;SDS011;49531;-34.520;150.798;2023-08-06T13:16:50;1.75;;;1.02;;
63394;SDS011;49531;-34.520;150.798;2023-08-06T13:19:17;1.35;;;0.98;;
63394;SDS011;49531;-34.520;150.798;2023-08-06T13:22:00;2.17;;;1.00;;
63394;SDS011;49531;-34.520;150.798;2023-08-06T13:24:29;1.30;;;1.08;;
63394;SDS011;49531;-34.520;150.798;2023-08-06T13:26:56;1.60;;;1.10;;
63394;SDS011;49531;-34.520;150.798;2023-08-06T13:29:25;1.10;;;1.00;;
63394;SDS011;49531;-34.520;150.798;2023-08-06T13:31:53;1.98;;;1.00;;
63394;SDS011;49531;-34.520;150.798;2023-08-06T13:34:20;1.10;;;1.00;;
63394;SDS011;49531;-34.520;150.798;2023-08-06T13:36:47;0.85;;;0.85;;
63394;SDS011;49531;-34.520;150.798;2023-08-06T13:39:15;1.33;;;1.00;;
63394;SDS011;49531;-34.520;150.798;2023-08-06T13:41:42;0.80;;;0.80;;
63394;SDS011;49531;-34.520;150.798;2023-08-06T13:44:10;1.60;;;1.10;;
63394;SDS011;49531;-34.520;150.798;2023-08-06T13:46:39;1.00;;;0.90;;
63394;SDS011;49531;-34.520;150.798;2023-08-06T13:49:07;0.90;;;0.82;;
63394;SDS011;49531;-34.520;150.798;2023-08-06T13:51:34;1.05;;;0.90;;
63394;SDS011;49531;-34.520;150.798;2023-08-06T13:54:01;0.93;;;0.80;;
63394;SDS011;49531;-34.520;150.798;2023-08-06T13:56:28;1.00;;;0.90;;
63394;SDS011;49531;-34.520;150.798;2023-08-06T13:58:55;1.13;;;0.98;;
63394;SDS011;49531;-34.520;150.798;2023-08-06T14:01:23;1.20;;;0.85;;
63394;SDS011;49531;-34.520;150.798;2023-08-06T14:03:51;1.40;;;0.90;;
63394;SDS011;49531;-34.520;150.798;2023-08-06T14:06:19;1.10;;;1.00;;
63394;SDS011;49531;-34.520;150.798;2023-08-06T14:08:46;1.77;;;1.10;;
63394;SDS011;49531;-34.520;150.798;2023-08-06T14:11:13;0.90;;;0.90;;
63394;SDS011;49531;-34.520;150.798;2023-08-06T14:13:40;2.42;;;1.10;;
63394;SDS011;49531;-34.520;150.798;2023-08-06T14:16:07;1.50;;;1.10;;
63394;SDS011;49531;-34.520;150.798;2023-08-06T14:18:34;1.50;;;1.13;;
63394;SDS011;49531;-34.520;150.798;2023-08-06T14:21:03;0.90;;;0.90;;
63394;SDS011;49531;-34.520;150.798;2023-08-06T14:23:30;1.20;;;1.10;;